Time;durP1;ratioP1;P1;durP2;ratioP2;P2;SDS_P1;SDS_P2;PMS_P1;PMS_P2;Temp;Humidity;BMP_temperature;BMP_pressure;BME280_temperature;BME280_humidity;BME280_pressure;Samples;Min_cycle;Max_cycle;Signal;HPM_P1;HPM_P2
2022/01/14 00:02:19;;;;;;;9.05;5.97;;;21.00;51.30;;;;;;5098449;28;20044;-74
2022/01/14 00:04:45;;;;;;;11.57;6.28;;;21.00;51.20;;;;;;5098375;28;20044;-75
2022/01/14 00:07:11;;;;;;;9.57;5.82;;;20.90;51.30;;;;;;5098200;28;20043;-74
2022/01/14 00:09:38;;;;;;;9.63;4.95;;;20.80;51.20;;;;;;5098180;28;20100;-74
2022/01/14 00:12:14;;;;;;;9.27;5.97;;;20.90;51.30;;;;;;5098270;28;20032;-74
2022/01/14 00:14:44;;;;;;;9.90;5.75;;;20.90;51.30;;;;;;5064029;28;20132;-74
2022/01/14 00:17:14;;;;;;;8.43;5.97;;;20.80;51.30;;;;;;5098159;28;20131;-74
2022/01/14 00:19:41;;;;;;;7.78;5.50;;;20.90;51.20;;;;;;5098018;28;20033;-74
2022/01/14 00:22:12;;;;;;;10.00;5.80;;;20.90;51.20;;;;;;5097880;28;20029;-74
2022/01/14 00:33:08;;;;;;;8.68;5.38;;;20.70;51.00;;;;;;5080259;28;20060;-74
2022/01/14 00:35:44;;;;;;;6.82;5.72;;;20.60;51.00;;;;;;5097554;28;20108;-74
2022/01/14 00:38:13;;;;;;;8.98;6.25;;;20.60;51.00;;;;;;5080220;28;20048;-74
2022/01/14 00:40:39;;;;;;;9.65;5.95;;;20.70;51.10;;;;;;5096891;28;20041;-74
2022/01/14 00:43:06;;;;;;;10.05;5.55;;;20.70;50.90;;;;;;5080188;28;20037;-74
2022/01/14 00:45:32;;;;;;;6.97;5.60;;;20.70;50.90;;;;;;5097674;28;20062;-74
2022/01/14 00:48:00;;;;;;;9.27;6.15;;;20.70;51.20;;;;;;5097548;28;20051;-74
2022/01/14 00:50:26;;;;;;;8.38;5.55;;;20.70;51.00;;;;;;5097289;28;20040;-75
2022/01/14 00:52:53;;;;;;;7.60;5.28;;;20.80;51.20;;;;;;5097446;28;20040;-75
2022/01/14 00:55:26;;;;;;;9.80;5.72;;;20.60;51.20;;;;;;5097293;28;20044;-74
2022/01/14 01:00:22;;;;;;;8.20;4.97;;;20.60;51.10;;;;;;5097109;28;20039;-73
2022/01/14 01:02:49;;;;;;;7.50;5.15;;;20.60;51.00;;;;;;5096899;28;20052;-74
2022/01/14 01:05:16;;;;;;;8.65;5.22;;;20.60;51.00;;;;;;5097262;28;20040;-74
2022/01/14 01:07:46;;;;;;;8.18;4.68;;;20.60;50.90;;;;;;5097087;28;20098;-74
2022/01/14 01:10:12;;;;;;;9.00;5.25;;;20.60;50.90;;;;;;5096915;28;20067;-74
2022/01/14 01:12:51;;;;;;;9.20;5.25;;;20.70;50.80;;;;;;5097207;28;20035;-74
2022/01/14 01:15:18;;;;;;;8.20;5.32;;;20.60;50.60;;;;;;5097117;28;20088;-74
2022/01/14 01:17:45;;;;;;;7.78;4.93;;;20.70;50.60;;;;;;5096920;28;20051;-74
2022/01/14 01:20:17;;;;;;;6.07;4.43;;;20.60;50.50;;;;;;5081437;28;20032;-74
2022/01/14 01:22:48;;;;;;;6.28;4.80;;;20.80;50.50;;;;;;5097046;28;20064;-74
2022/01/14 01:25:26;;;;;;;7.68;4.72;;;20.80;50.30;;;;;;5079579;28;20036;-74
2022/01/14 01:27:54;;;;;;;7.45;5.47;;;20.80;50.20;;;;;;5096889;28;20056;-74
2022/01/14 01:33:02;;;;;;;7.57;4.85;;;20.90;50.10;;;;;;5096782;28;20059;-75
2022/01/14 01:35:28;;;;;;;9.50;5.00;;;20.80;50.00;;;;;;5096882;28;20039;-74
2022/01/14 01:37:55;;;;;;;7.90;4.75;;;20.80;50.10;;;;;;5096629;28;20043;-74
2022/01/14 01:40:22;;;;;;;7.30;4.65;;;20.80;50.30;;;;;;5096636;28;20041;-74
2022/01/14 01:42:50;;;;;;;8.30;5.05;;;20.70;50.40;;;;;;5096618;28;20047;-74
2022/01/14 01:45:24;;;;;;;8.32;4.97;;;20.70;50.50;;;;;;5095853;28;20070;-74
2022/01/14 01:47:50;;;;;;;8.07;4.78;;;20.60;50.40;;;;;;5079488;28;20041;-74
2022/01/14 01:50:19;;;;;;;8.18;5.03;;;20.60;50.40;;;;;;5096066;28;20040;-74
2022/01/14 01:52:46;;;;;;;9.75;5.20;;;20.60;50.40;;;;;;5096547;28;20037;-74
2022/01/14 01:55:13;;;;;;;8.88;5.13;;;20.60;50.40;;;;;;5096544;28;20048;-74
2022/01/14 01:57:42;;;;;;;8.05;4.88;;;20.50;50.50;;;;;;5096585;28;20045;-74
2022/01/14 02:00:12;;;;;;;6.82;4.20;;;20.40;50.30;;;;;;5096232;28;20055;-74
2022/01/14 02:02:47;;;;;;;7.15;4.90;;;20.50;50.40;;;;;;5096541;28;20037;-74
2022/01/14 02:05:15;;;;;;;7.65;4.93;;;20.50;50.30;;;;;;5096530;28;20032;-74
2022/01/14 02:07:43;;;;;;;8.57;5.07;;;20.40;50.20;;;;;;5096243;28;20092;-74
2022/01/14 02:10:10;;;;;;;6.32;4.30;;;20.50;50.20;;;;;;5096129;28;20115;-74
2022/01/14 02:12:39;;;;;;;7.05;4.47;;;20.50;50.20;;;;;;5096314;28;20041;-74
2022/01/14 02:15:26;;;;;;;7.80;4.43;;;20.50;50.30;;;;;;5096054;28;20047;-74
2022/01/14 02:23:24;;;;;;;8.25;4.25;;;20.40;49.90;;;;;;5096494;28;20017;-74
2022/01/14 02:25:51;;;;;;;5.55;3.92;;;20.50;49.90;;;;;;5096577;28;20040;-74
2022/01/14 02:28:18;;;;;;;7.20;4.55;;;20.50;49.90;;;;;;5096287;28;20079;-74
2022/01/14 02:30:47;;;;;;;7.22;4.30;;;20.50;49.80;;;;;;5096100;28;20036;-73
2022/01/14 02:33:14;;;;;;;5.82;4.13;;;20.60;49.70;;;;;;5078817;28;20044;-74
2022/01/14 02:35:42;;;;;;;8.05;4.80;;;20.50;49.80;;;;;;5096128;28;20048;-74
2022/01/14 02:38:11;;;;;;;7.07;4.50;;;20.60;49.80;;;;;;5096232;28;20036;-74
2022/01/14 02:40:38;;;;;;;7.07;4.65;;;20.60;49.60;;;;;;5095887;28;20036;-74
2022/01/14 02:43:11;;;;;;;7.10;4.78;;;20.50;49.50;;;;;;5096067;28;20032;-74
2022/01/14 02:45:38;;;;;;;7.22;4.63;;;20.40;49.40;;;;;;5096306;28;20048;-74
2022/01/14 02:48:04;;;;;;;9.75;4.20;;;20.50;49.50;;;;;;5095990;28;20041;-74
2022/01/14 02:50:42;;;;;;;6.75;4.43;;;20.50;49.60;;;;;;5095997;28;20108;-74
2022/01/14 02:53:27;;;;;;;8.35;4.25;;;20.40;49.60;;;;;;5096127;28;20039;-74
2022/01/14 02:56:00;;;;;;;6.30;4.47;;;20.40;49.80;;;;;;5095931;28;20052;-74
2022/01/14 02:58:32;;;;;;;8.02;4.47;;;20.30;49.80;;;;;;5078661;28;20253;-74
2022/01/14 03:01:00;;;;;;;7.80;4.10;;;20.30;49.80;;;;;;5095999;28;20041;-74
2022/01/14 03:03:30;;;;;;;8.02;4.88;;;20.30;49.80;;;;;;5098124;28;20045;-74
2022/01/14 03:05:56;;;;;;;7.80;4.75;;;20.40;49.80;;;;;;5099525;28;20036;-74
2022/01/14 03:08:23;;;;;;;8.05;4.80;;;20.20;49.70;;;;;;5099513;28;20036;-74
2022/01/14 03:10:54;;;;;;;7.97;4.28;;;20.20;49.70;;;;;;5099213;28;20055;-74
2022/01/14 03:13:21;;;;;;;6.03;4.57;;;20.10;49.70;;;;;;5099443;28;20040;-74
2022/01/14 03:15:47;;;;;;;7.55;4.60;;;20.10;49.70;;;;;;5099157;28;20044;-74
2022/01/14 03:18:21;;;;;;;8.18;5.20;;;20.20;49.50;;;;;;5099288;28;20040;-74
2022/01/14 03:20:53;;;;;;;8.52;4.35;;;20.20;49.50;;;;;;5099220;28;20100;-74
2022/01/14 03:23:20;;;;;;;7.88;4.07;;;20.20;49.30;;;;;;5083940;28;20101;-74
2022/01/14 03:25:49;;;;;;;8.50;4.45;;;20.20;49.20;;;;;;5099353;28;20044;-74
2022/01/14 03:28:20;;;;;;;7.18;4.70;;;20.20;49.30;;;;;;5081916;28;20056;-74
2022/01/14 03:30:50;;;;;;;;;;;20.10;49.50;;;;;;5099131;28;20055;-73
2022/01/14 03:33:17;;;;;;;7.57;5.15;;;20.10;49.50;;;;;;5099069;28;19912;-74
2022/01/14 03:35:43;;;;;;;7.38;5.10;;;20.20;49.40;;;;;;5098932;28;20055;-74
2022/01/14 03:38:10;;;;;;;9.43;5.50;;;20.20;49.40;;;;;;5098828;28;20043;-74
2022/01/14 03:40:36;;;;;;;6.45;4.38;;;20.10;49.40;;;;;;5098699;28;20036;-74
2022/01/14 03:43:03;;;;;;;7.18;4.72;;;20.20;49.30;;;;;;5098729;28;20047;-74
2022/01/14 03:45:29;;;;;;;10.85;4.30;;;20.20;49.10;;;;;;5098840;28;20052;-74
2022/01/14 03:47:55;;;;;;;6.70;4.10;;;20.30;49.20;;;;;;5114946;28;20096;-74
2022/01/14 03:50:22;;;;;;;7.50;4.72;;;20.20;49.00;;;;;;5098648;28;20051;-74
2022/01/14 03:52:48;;;;;;;9.93;5.07;;;20.20;49.00;;;;;;5098476;28;20036;-74
2022/01/14 03:55:14;;;;;;;12.40;5.55;;;20.10;49.00;;;;;;5098588;28;20049;-74
2022/01/14 03:57:40;;;;;;;10.80;5.10;;;20.20;49.00;;;;;;5081203;28;20032;-74
2022/01/14 04:00:07;;;;;;;9.48;5.43;;;20.10;49.00;;;;;;5098400;28;20131;-74
2022/01/14 04:02:43;;;;;;;9.13;5.55;;;20.20;49.10;;;;;;5098343;28;20036;-74
2022/01/14 04:05:10;;;;;;;8.48;5.20;;;20.10;49.20;;;;;;5080926;28;20052;-74
2022/01/14 04:07:36;;;;;;;9.63;5.13;;;20.00;49.40;;;;;;5098395;28;20067;-74
2022/01/14 04:10:04;;;;;;;7.50;5.25;;;20.00;49.50;;;;;;5098326;28;20036;-74
2022/01/14 04:12:51;;;;;;;8.57;5.32;;;20.00;49.60;;;;;;5097952;28;20050;-74
2022/01/14 04:15:37;;;;;;;10.05;5.72;;;19.90;49.60;;;;;;5098087;28;20040;-74
2022/01/14 04:18:15;;;;;;;8.18;4.88;;;20.00;49.60;;;;;;5098157;28;20070;-74
2022/01/14 04:20:44;;;;;;;10.18;5.57;;;19.90;49.60;;;;;;5097890;28;20049;-74
2022/01/14 04:23:12;;;;;;;7.43;5.03;;;19.80;49.50;;;;;;5097901;28;20040;-74
2022/01/14 04:25:38;;;;;;;7.82;4.35;;;19.80;49.50;;;;;;5098020;28;20055;-75
2022/01/14 04:28:06;;;;;;;8.73;5.78;;;19.80;49.60;;;;;;5097859;28;20068;-74
2022/01/14 04:30:33;;;;;;;8.25;5.22;;;19.80;49.50;;;;;;5097899;28;20048;-74
2022/01/14 04:32:59;;;;;;;8.93;4.78;;;19.80;49.50;;;;;;5079944;28;20044;-74
2022/01/14 04:35:26;;;;;;;8.38;4.70;;;19.80;49.70;;;;;;5097800;28;20070;-74
2022/01/14 04:37:53;;;;;;;8.95;4.47;;;19.70;49.60;;;;;;5097623;28;20055;-74
2022/01/14 04:40:20;;;;;;;8.40;5.20;;;19.80;49.80;;;;;;5097458;28;20067;-74
2022/01/14 04:42:48;;;;;;;8.25;4.85;;;19.80;49.80;;;;;;5097542;28;20048;-74
2022/01/14 04:45:29;;;;;;;8.13;5.03;;;19.80;49.90;;;;;;5097609;28;20044;-73
2022/01/14 04:47:56;;;;;;;7.68;5.03;;;19.70;49.80;;;;;;5097310;28;20036;-74
2022/01/14 04:50:24;;;;;;;10.60;5.65;;;19.70;49.90;;;;;;5097552;28;20043;-74
2022/01/14 04:52:51;;;;;;;11.00;6.15;;;19.80;49.90;;;;;;5097329;28;20100;-73
2022/01/14 04:55:27;;;;;;;7.97;4.82;;;19.80;49.90;;;;;;5081258;28;20091;-74
2022/01/14 04:57:55;;;;;;;9.77;5.75;;;19.90;49.90;;;;;;5079767;28;20028;-74
2022/01/14 05:00:24;;;;;;;9.10;4.80;;;20.20;49.70;;;;;;5097106;28;20020;-74
2022/01/14 05:02:55;;;;;;;14.10;6.00;;;20.10;49.50;;;;;;5096213;28;20055;-74
2022/01/14 05:05:23;;;;;;;8.95;5.18;;;20.20;49.40;;;;;;5096191;28;20032;-73
2022/01/14 05:07:50;;;;;;;12.55;5.97;;;20.30;51.00;;;;;;5096581;28;20050;-73
2022/01/14 05:10:49;;;;;;;8.63;5.65;;;20.20;53.30;;;;;;5096327;28;20036;-77
2022/01/14 05:13:08;;;;;;;10.10;4.68;;;20.20;54.50;;;;;;5095234;28;20036;-76
2022/01/14 05:15:34;;;;;;;8.95;4.88;;;20.50;57.00;;;;;;5095820;28;20044;-76
2022/01/14 05:18:00;;;;;;;6.93;4.80;;;20.90;55.80;;;;;;5096140;28;20044;-78
2022/01/14 05:20:26;;;;;;;7.45;5.45;;;21.20;60.60;;;;;;5096158;28;20060;-77
2022/01/14 05:22:52;;;;;;;7.03;4.95;;;21.50;52.50;;;;;;5078254;28;20033;-77
2022/01/14 05:25:19;;;;;;;7.93;4.70;;;21.50;49.00;;;;;;5094597;28;20038;-79
2022/01/14 05:27:45;;;;;;;8.63;5.65;;;21.60;49.50;;;;;;5096034;28;20040;-79
2022/01/14 05:30:13;;;;;;;7.55;4.82;;;21.70;47.40;;;;;;5095959;28;20036;-79
2022/01/14 05:32:46;;;;;;;10.32;6.55;;;21.60;43.60;;;;;;5095608;28;20048;-76
2022/01/14 05:35:13;;;;;;;;;;;21.70;42.00;;;;;;5096527;28;20055;-77
2022/01/14 05:37:39;;;;;;;14.93;7.40;;;21.60;40.40;;;;;;5095983;28;19908;-75
2022/01/14 05:40:06;;;;;;;13.80;7.57;;;21.30;40.90;;;;;;5095961;28;20108;-75
2022/01/14 05:42:34;;;;;;;9.18;6.18;;;21.00;41.60;;;;;;5078469;28;20063;-77
2022/01/14 05:45:01;;;;;;;9.68;6.57;;;20.90;42.70;;;;;;5095855;28;20103;-74
2022/01/14 05:47:27;;;;;;;10.70;7.10;;;20.70;43.50;;;;;;5095925;28;20060;-75
2022/01/14 05:49:54;;;;;;;10.23;6.65;;;20.80;44.20;;;;;;5095711;28;20041;-75
2022/01/14 05:52:21;;;;;;;19.33;10.27;;;20.70;45.00;;;;;;5095806;28;20122;-75
2022/01/14 05:54:51;;;;;;;13.90;7.68;;;20.60;45.50;;;;;;5095923;28;20090;-76
2022/01/14 05:57:17;;;;;;;15.40;7.38;;;20.60;45.60;;;;;;5095831;28;20101;-76
2022/01/14 05:59:43;;;;;;;14.25;7.63;;;20.70;46.00;;;;;;5095973;28;20039;-76
2022/01/14 06:02:09;;;;;;;12.80;7.85;;;20.60;46.10;;;;;;5095701;28;20032;-74
2022/01/14 06:04:36;;;;;;;13.70;7.70;;;20.50;41.30;;;;;;5095674;28;20036;-74
2022/01/14 06:07:03;;;;;;;9.88;6.70;;;20.60;41.40;;;;;;5095338;28;20039;-76
2022/01/14 06:09:29;;;;;;;9.75;6.13;;;20.70;41.30;;;;;;5095224;28;20060;-73
2022/01/14 06:11:55;;;;;;;9.13;5.47;;;20.80;41.00;;;;;;5093831;28;20025;-74
2022/01/14 06:14:23;;;;;;;7.85;4.80;;;21.00;38.80;;;;;;5094765;28;20051;-73
2022/01/14 06:16:49;;;;;;;10.40;6.13;;;21.00;40.60;;;;;;5094599;28;20045;-71
2022/01/14 06:19:15;;;;;;;12.30;7.18;;;21.10;40.10;;;;;;5088840;28;20041;-73
2022/01/14 06:21:41;;;;;;;13.95;8.07;;;21.10;42.00;;;;;;5091450;28;20040;-70
2022/01/14 06:24:08;;;;;;;10.93;6.57;;;21.00;41.00;;;;;;5093473;28;20042;-73
2022/01/14 06:26:34;;;;;;;14.43;9.85;;;21.10;40.40;;;;;;5094581;28;20041;-73
2022/01/14 06:29:00;;;;;;;15.38;9.50;;;21.00;39.30;;;;;;5094634;28;20055;-74
2022/01/14 06:31:26;;;;;;;15.15;8.77;;;21.10;42.10;;;;;;5094707;28;20048;-74
2022/01/14 06:33:52;;;;;;;15.90;10.95;;;21.20;42.00;;;;;;5094278;28;20056;-73
2022/01/14 06:36:18;;;;;;;19.08;10.13;;;21.20;42.90;;;;;;5094953;28;20201;-73
2022/01/14 06:38:45;;;;;;;16.50;9.90;;;21.40;40.70;;;;;;5098082;28;20040;-73
2022/01/14 06:41:10;;;;;;;23.42;12.60;;;21.40;41.90;;;;;;5080632;28;20063;-77
2022/01/14 06:43:37;;;;;;;20.75;11.85;;;21.50;55.50;;;;;;5097947;28;20040;-72
2022/01/14 06:46:03;;;;;;;22.65;11.77;;;21.50;53.90;;;;;;5081498;28;20094;-71
2022/01/14 06:48:29;;;;;;;18.95;10.85;;;21.60;53.70;;;;;;5098603;28;20040;-74
2022/01/14 06:50:56;;;;;;;16.52;10.73;;;21.40;53.90;;;;;;5099129;28;20040;-74
2022/01/14 06:53:23;;;;;;;16.35;9.25;;;21.40;54.00;;;;;;5097921;28;20041;-73
2022/01/14 06:55:49;;;;;;;27.80;12.60;;;21.30;54.30;;;;;;5098378;28;20048;-72
2022/01/14 06:58:15;;;;;;;20.40;10.15;;;21.20;54.70;;;;;;5098418;28;20043;-74
2022/01/14 07:00:41;;;;;;;14.68;9.70;;;21.10;55.30;;;;;;5098277;28;20044;-72
2022/01/14 07:03:08;;;;;;;16.83;9.23;;;21.10;55.70;;;;;;5098161;28;20151;-73
2022/01/14 07:05:34;;;;;;;17.35;9.45;;;21.00;56.00;;;;;;5098468;28;20052;-74
2022/01/14 07:08:00;;;;;;;14.23;9.68;;;21.00;56.30;;;;;;5098174;28;20070;-75
2022/01/14 07:10:26;;;;;;;14.60;9.45;;;21.00;56.70;;;;;;5100773;28;20032;-73
2022/01/14 07:12:53;;;;;;;16.90;8.85;;;21.00;56.90;;;;;;5097617;28;20032;-74
2022/01/14 07:15:21;;;;;;;15.32;9.05;;;21.00;57.30;;;;;;5098361;28;20044;-73
2022/01/14 07:17:47;;;;;;;22.83;9.25;;;21.00;57.40;;;;;;5098366;28;20040;-75
2022/01/14 07:20:15;;;;;;;13.43;8.77;;;20.80;57.50;;;;;;5097916;28;20036;-74
2022/01/14 07:22:45;;;;;;;14.63;9.00;;;20.90;57.90;;;;;;5098027;28;20043;-73
2022/01/14 07:25:11;;;;;;;21.75;10.18;;;20.80;58.00;;;;;;5097998;28;20066;-74
2022/01/14 07:27:38;;;;;;;15.88;9.07;;;20.70;58.30;;;;;;5098277;28;20099;-75
2022/01/14 07:30:06;;;;;;;16.42;10.75;;;20.60;58.60;;;;;;5098215;28;20079;-75
2022/01/14 07:32:32;;;;;;;24.10;10.65;;;20.70;58.90;;;;;;5080144;28;20072;-73
2022/01/14 07:34:58;;;;;;;22.38;12.85;;;20.70;59.00;;;;;;5098059;28;20413;-74
2022/01/14 07:37:24;;;;;;;19.48;11.50;;;20.50;59.50;;;;;;5098126;28;20051;-75
2022/01/14 07:39:51;;;;;;;23.95;11.77;;;20.60;60.20;;;;;;5098197;28;20068;-73
2022/01/14 07:42:17;;;;;;;20.67;10.85;;;20.60;60.10;;;;;;5098060;28;20107;-73
2022/01/14 07:44:43;;;;;;;18.63;10.25;;;20.60;60.60;;;;;;5097129;28;20113;-75
2022/01/14 07:47:09;;;;;;;19.30;10.65;;;20.60;60.90;;;;;;5098181;28;20040;-73
2022/01/14 07:49:35;;;;;;;25.70;11.32;;;20.50;60.70;;;;;;5097208;28;20040;-73
2022/01/14 07:52:02;;;;;;;19.90;10.35;;;20.60;60.50;;;;;;5097990;28;20041;-73
2022/01/14 07:54:29;;;;;;;20.60;11.50;;;20.60;60.50;;;;;;5097638;28;20115;-73
2022/01/14 07:56:57;;;;;;;22.35;10.95;;;20.60;59.70;;;;;;5097813;28;20029;-71
2022/01/14 07:59:25;;;;;;;21.45;7.88;;;20.60;58.90;;;;;;5080458;28;20083;-73
2022/01/14 08:01:55;;;;;;;20.25;10.77;;;20.60;58.80;;;;;;5107489;28;20066;-73
2022/01/14 08:04:22;;;;;;;20.42;10.02;;;20.70;57.60;;;;;;5116760;28;20074;-73
2022/01/14 08:06:50;;;;;;;18.35;10.82;;;20.60;57.60;;;;;;5099540;28;20040;-72
2022/01/14 08:09:18;;;;;;;17.58;9.70;;;20.60;57.60;;;;;;5118217;28;20131;-72
2022/01/14 08:11:45;;;;;;;3.33;2.40;;;20.70;57.80;;;;;;5117691;28;20036;-72
2022/01/14 08:14:13;;;;;;;1.95;1.55;;;21.10;61.70;;;;;;5117520;28;20040;-72
2022/01/14 08:16:40;;;;;;;0.57;0.57;;;21.70;59.30;;;;;;5117446;28;20055;-73
2022/01/14 08:19:07;;;;;;;0.73;0.73;;;21.90;54.80;;;;;;5117565;28;20051;-73
2022/01/14 08:21:33;;;;;;;3.45;2.28;;;21.90;52.80;;;;;;5116928;28;20042;-74
2022/01/14 08:24:00;;;;;;;1.90;1.80;;;21.90;51.90;;;;;;5096649;28;20048;-71
2022/01/14 08:26:26;;;;;;;1.92;1.40;;;22.00;49.90;;;;;;5095871;28;20036;-71
2022/01/14 08:28:52;;;;;;;5.32;1.13;;;22.00;48.40;;;;;;5096609;28;20045;-72
2022/01/14 08:31:19;;;;;;;4.38;2.85;;;21.90;48.60;;;;;;5095350;28;20052;-71
2022/01/14 08:33:46;;;;;;;25.95;6.60;;;22.10;48.00;;;;;;5096498;28;20063;-70
2022/01/14 08:36:13;;;;;;;5.85;3.40;;;22.10;45.80;;;;;;5096602;28;20506;-72
2022/01/14 08:38:40;;;;;;;14.60;8.38;;;22.00;44.70;;;;;;5096731;28;20092;-71
2022/01/14 08:41:06;;;;;;;18.00;9.85;;;22.00;42.40;;;;;;5096714;28;20040;-72
2022/01/14 08:43:32;;;;;;;16.50;9.45;;;22.00;35.30;;;;;;5096633;28;20059;-72
2022/01/14 08:46:01;;;;;;;17.42;10.15;;;22.10;33.70;;;;;;5096826;28;20094;-72
2022/01/14 08:48:28;;;;;;;15.98;8.15;;;22.10;31.50;;;;;;5096771;28;20048;-73
2022/01/14 08:50:55;;;;;;;14.20;7.88;;;22.20;31.70;;;;;;5096403;28;20071;-73
2022/01/14 08:53:21;;;;;;;4.90;3.17;;;22.10;32.30;;;;;;5095087;28;20051;-71
2022/01/14 08:55:47;;;;;;;17.13;9.32;;;22.20;38.50;;;;;;5095985;28;20044;-73
2022/01/14 08:58:13;;;;;;;18.05;8.05;;;22.30;33.00;;;;;;5096055;28;20067;-73
2022/01/14 09:00:40;;;;;;;28.98;13.60;;;22.40;38.70;;;;;;5090686;28;20615;-73
2022/01/14 09:03:07;;;;;;;19.15;9.93;;;22.50;44.10;;;;;;5115831;28;20047;-72
2022/01/14 09:05:33;;;;;;;40.70;12.95;;;22.70;46.60;;;;;;5115732;28;20040;-72
2022/01/14 09:08:03;;;;;;;15.82;6.90;;;22.90;55.50;;;;;;5116289;28;20043;-66
2022/01/14 09:10:29;;;;;;;11.70;5.32;;;23.10;50.70;;;;;;5116803;28;20039;-71
2022/01/14 09:12:56;;;;;;;31.17;16.23;;;23.20;46.10;;;;;;5116322;28;20040;-71
2022/01/14 09:15:22;;;;;;;20.30;10.45;;;23.40;49.20;;;;;;5116484;28;20048;-71
2022/01/14 09:17:49;;;;;;;52.72;17.75;;;23.60;45.10;;;;;;5116690;28;20119;-74
2022/01/14 09:20:15;;;;;;;23.27;10.02;;;23.70;47.00;;;;;;5116409;28;20062;-73
2022/01/14 09:22:50;;;;;;;26.23;13.80;;;23.80;43.80;;;;;;5106134;28;20108;-73
2022/01/14 09:25:18;;;;;;;69.55;29.63;;;23.90;47.10;;;;;;5096335;28;20049;-73
2022/01/14 09:27:47;;;;;;;32.85;14.18;;;23.90;45.70;;;;;;5096156;28;20036;-74
2022/01/14 09:30:13;;;;;;;19.90;10.35;;;24.00;44.40;;;;;;5096118;28;20044;-71
2022/01/14 09:32:39;;;;;;;48.00;25.48;;;24.40;43.90;;;;;;5095731;28;20043;-73
2022/01/14 09:35:07;;;;;;;21.15;10.25;;;24.50;42.20;;;;;;5094825;28;20039;-72
2022/01/14 09:37:34;;;;;;;25.05;14.32;;;24.70;40.50;;;;;;5095280;28;20029;-72
2022/01/14 09:40:00;;;;;;;17.05;9.45;;;24.80;39.10;;;;;;5095898;28;20050;-71
2022/01/14 09:42:27;;;;;;;15.43;9.27;;;24.70;30.20;;;;;;5095831;28;20070;-70
2022/01/14 09:44:54;;;;;;;15.15;8.02;;;24.50;27.80;;;;;;5095622;28;20051;-71
2022/01/14 09:47:21;;;;;;;15.30;8.73;;;24.30;28.90;;;;;;5095990;28;20075;-70
2022/01/14 09:49:48;;;;;;;9.13;6.80;;;24.20;29.00;;;;;;5095774;28;20044;-71
2022/01/14 09:52:15;;;;;;;8.88;6.13;;;24.10;40.60;;;;;;5095817;28;20040;-70
2022/01/14 09:54:43;;;;;;;8.77;5.80;;;24.10;42.20;;;;;;5095707;28;20044;-71
2022/01/14 09:57:12;;;;;;;8.30;5.57;;;24.00;41.40;;;;;;5094609;28;20089;-73
2022/01/14 09:59:38;;;;;;;12.40;6.57;;;23.90;42.70;;;;;;5092387;28;20040;-71
2022/01/14 10:02:04;;;;;;;9.85;6.82;;;24.20;50.50;;;;;;5095037;28;20040;-71
2022/01/14 10:04:31;;;;;;;9.45;5.93;;;24.30;45.60;;;;;;5078154;28;20487;-72
2022/01/14 10:06:59;;;;;;;8.63;6.10;;;24.30;43.90;;;;;;5095581;28;20097;-73
2022/01/14 10:09:42;;;;;;;8.55;5.30;;;24.10;42.90;;;;;;5095689;28;20071;-71
2022/01/14 10:12:16;;;;;;;8.13;6.07;;;23.90;44.60;;;;;;5097579;28;20036;-72
2022/01/14 10:14:56;;;;;;;8.93;6.22;;;23.80;43.90;;;;;;5082079;28;20054;-71
2022/01/14 10:17:24;;;;;;;9.40;6.53;;;23.80;43.40;;;;;;5098832;28;20031;-72
2022/01/14 10:19:51;;;;;;;7.63;5.78;;;23.80;45.80;;;;;;5098875;28;20037;-72
2022/01/14 10:22:26;;;;;;;12.05;6.65;;;23.80;45.90;;;;;;5099286;28;20086;-71
2022/01/14 10:25:00;;;;;;;11.55;6.93;;;23.80;41.70;;;;;;5099240;28;20045;-70
2022/01/14 10:27:37;;;;;;;14.73;7.90;;;23.60;47.20;;;;;;5099512;28;20115;-71
2022/01/14 10:30:24;;;;;;;18.17;11.23;;;23.50;41.60;;;;;;5099552;28;20040;-70
2022/01/14 10:32:53;;;;;;;14.98;9.35;;;23.80;46.60;;;;;;5099026;28;20047;-71
2022/01/14 10:35:22;;;;;;;17.65;8.65;;;24.20;41.20;;;;;;5098841;28;20059;-70
2022/01/14 10:37:48;;;;;;;12.98;6.72;;;24.30;36.50;;;;;;5098963;28;20036;-70
2022/01/14 10:40:20;;;;;;;12.32;7.43;;;24.30;37.40;;;;;;5099401;28;20040;-69
2022/01/14 10:42:50;;;;;;;10.23;7.10;;;24.30;33.30;;;;;;5098775;28;20040;-69
2022/01/14 10:45:27;;;;;;;15.60;5.68;;;24.30;33.70;;;;;;5098968;28;20044;-69
2022/01/14 10:47:53;;;;;;;12.27;6.90;;;24.50;38.70;;;;;;5098623;28;20400;-69
2022/01/14 10:50:44;;;;;;;17.83;8.85;;;24.40;36.80;;;;;;5098966;28;20040;-70
2022/01/14 10:53:16;;;;;;;12.10;6.68;;;24.40;38.60;;;;;;5097961;28;20040;-72
2022/01/14 10:55:46;;;;;;;13.07;9.15;;;24.50;44.60;;;;;;5098900;28;20068;-70
2022/01/14 10:58:37;;;;;;;11.85;7.88;;;24.50;45.30;;;;;;5098888;28;20412;-70
2022/01/14 11:01:06;;;;;;;10.25;6.57;;;24.40;46.70;;;;;;5098286;28;20123;-70
2022/01/14 11:03:44;;;;;;;9.75;6.25;;;24.70;46.30;;;;;;5098711;28;20059;-70
2022/01/14 11:06:22;;;;;;;12.02;8.05;;;24.90;45.50;;;;;;5098706;28;20476;-70
2022/01/14 11:08:59;;;;;;;16.27;8.75;;;25.00;45.10;;;;;;5081355;28;20033;-71
2022/01/14 11:11:27;;;;;;;11.55;7.95;;;24.90;45.60;;;;;;5098435;28;20044;-71
2022/01/14 11:13:53;;;;;;;14.05;7.10;;;24.90;45.80;;;;;;5098392;28;20041;-70
2022/01/14 11:16:20;;;;;;;14.65;8.05;;;24.80;46.00;;;;;;5098639;28;20064;-71
2022/01/14 11:18:47;;;;;;;10.15;6.60;;;24.80;46.20;;;;;;5098597;28;20045;-70
2022/01/14 11:24:03;;;;;;;12.80;8.07;;;24.60;41.50;;;;;;5080039;28;20035;-70
2022/01/14 11:26:34;;;;;;;8.93;5.30;;;24.60;46.00;;;;;;5098158;28;20048;-70
2022/01/14 11:29:07;;;;;;;10.15;7.07;;;24.40;47.50;;;;;;5098035;28;20064;-71
2022/01/14 11:31:39;;;;;;;16.23;8.05;;;24.40;47.00;;;;;;5097485;28;20056;-71
2022/01/14 11:34:30;;;;;;;12.85;6.20;;;24.30;47.30;;;;;;5098011;28;20055;-72
2022/01/14 11:37:07;;;;;;;12.15;7.60;;;24.30;47.80;;;;;;5097555;28;20051;-72
2022/01/14 11:39:37;;;;;;;11.77;8.38;;;24.20;47.90;;;;;;5098313;28;20067;-71
2022/01/14 11:42:14;;;;;;;14.60;8.52;;;24.30;43.40;;;;;;5098209;28;20097;-71
2022/01/14 11:44:54;;;;;;;12.95;7.82;;;24.10;50.20;;;;;;5097886;28;20044;-71
2022/01/14 11:47:24;;;;;;;19.95;7.53;;;24.30;51.90;;;;;;5097446;28;20096;-71
2022/01/14 11:49:51;;;;;;;10.05;5.45;;;24.20;51.20;;;;;;5097825;28;20070;-71
2022/01/14 11:52:35;;;;;;;13.05;8.13;;;24.30;51.40;;;;;;5097949;28;20087;-71
2022/01/14 11:55:04;;;;;;;16.73;8.43;;;24.20;49.40;;;;;;5097514;28;20040;-72
2022/01/14 11:57:50;;;;;;;18.50;9.38;;;24.10;50.10;;;;;;5080592;28;20044;-72
2022/01/14 12:00:25;;;;;;;10.00;6.78;;;24.20;48.40;;;;;;5098052;28;20058;-72
2022/01/14 12:02:54;;;;;;;13.45;8.55;;;24.10;50.00;;;;;;5097442;28;20064;-74
2022/01/14 12:05:25;;;;;;;12.32;7.22;;;24.10;48.20;;;;;;5097681;28;20126;-74
2022/01/14 12:08:11;;;;;;;15.57;8.32;;;24.00;48.90;;;;;;5097917;28;20090;-74
2022/01/14 12:10:49;;;;;;;13.88;7.88;;;24.10;46.90;;;;;;5096390;28;20037;-75
2022/01/14 12:13:40;;;;;;;12.38;7.40;;;24.00;50.00;;;;;;5079995;28;20044;-74
2022/01/14 12:16:09;;;;;;;12.60;8.63;;;23.90;49.70;;;;;;5096843;28;20048;-73
2022/01/14 12:18:56;;;;;;;11.85;7.90;;;23.80;47.20;;;;;;5097325;28;20108;-73
2022/01/14 12:21:53;;;;;;;13.15;8.52;;;23.70;51.00;;;;;;5097227;28;20096;-73
2022/01/14 12:24:30;;;;;;;13.07;8.02;;;23.70;48.30;;;;;;5084532;28;20036;-73
2022/01/14 12:27:11;;;;;;;15.65;8.35;;;23.80;51.00;;;;;;5096892;28;20055;-73
2022/01/14 12:29:37;;;;;;;9.05;5.95;;;23.80;51.20;;;;;;5097049;28;20044;-73
2022/01/14 12:32:20;;;;;;;12.15;7.40;;;23.80;51.60;;;;;;5096410;28;20055;-73
2022/01/14 12:34:55;;;;;;;10.00;5.53;;;23.80;51.20;;;;;;5096583;28;20042;-73
2022/01/14 12:37:22;;;;;;;13.57;7.90;;;23.90;52.50;;;;;;5096812;28;20037;-74
2022/01/14 12:39:50;;;;;;;14.55;6.90;;;23.90;47.30;;;;;;5096876;28;20074;-73
2022/01/14 12:42:22;;;;;;;18.05;9.00;;;23.90;53.20;;;;;;5096346;28;20060;-73
2022/01/14 12:44:52;;;;;;;12.07;8.23;;;23.80;49.80;;;;;;5096567;28;20275;-73
2022/01/14 12:47:33;;;;;;;12.85;8.30;;;23.90;51.40;;;;;;5096927;28;20036;-73
2022/01/14 12:50:11;;;;;;;15.82;7.20;;;24.00;53.90;;;;;;5097001;28;20426;-74
2022/01/14 12:52:50;;;;;;;13.70;9.13;;;23.90;54.10;;;;;;5096301;28;20059;-73
2022/01/14 12:55:18;;;;;;;10.57;7.32;;;24.00;53.80;;;;;;5076175;28;20053;-72
2022/01/14 12:57:44;;;;;;;13.65;8.80;;;24.10;54.70;;;;;;5059168;28;20041;-73
2022/01/14 13:00:13;;;;;;;13.63;8.10;;;23.90;54.70;;;;;;5076501;28;20045;-73
2022/01/14 13:02:41;;;;;;;14.68;8.77;;;24.10;54.80;;;;;;5076171;28;20869;-74
2022/01/14 13:05:19;;;;;;;14.13;7.22;;;23.90;55.20;;;;;;5059053;28;20075;-73
2022/01/14 13:07:52;;;;;;;14.75;7.82;;;23.90;56.20;;;;;;5076635;28;20037;-72
2022/01/14 13:10:18;;;;;;;15.23;8.50;;;24.00;57.00;;;;;;5076056;28;20048;-72
2022/01/14 13:12:46;;;;;;;15.68;8.23;;;24.10;57.70;;;;;;5075483;28;20028;-72
2022/01/14 13:15:20;;;;;;;11.63;8.63;;;24.00;57.60;;;;;;5074707;28;20048;-72